Austin, TX (78763)

4:22 AM CST on December 28, 2014 (GMT -0600)
West Austin | Change Station
CLOSE
Current Station
Personal Weather Station
Location: Austin, TX
Elevation: 617 ft
Nearby Weather Stations

Elev 617 ft 30.29 °N, 97.75 °W | Updated 11 minutes ago

Overcast
Overcast
38.8 °F
Feels Like 39 °F
N
1.7
Wind Variable Wind from South

Today
High -- | Low -- °F
--% Chance of Precip.
Yesterday
High -- | Low -- °F
Precip. -- in
7:26 AM 5:39 PM
Waxing Crescent, 46% visible
Pressure 30.28 in
Visibility 10.0 miles
Clouds Overcast 5000 ft
Windchill 39 °F
Dew Point 32 °F
Humidity 76%
Rainfall 0.00 in
Snow Depth Not available.
UV 0 out of 12
Pollen 8.80 out of 12
Air Quality Not available.
Flu Activity Not available.
METAR KATT 280951Z AUTO 36007KT 10SM OVC050 04/M03 A3026 RMK AO2 SLP252 T00391033

More Conditions Fewer Conditions

Pressure 30.28 in
Visibility 10.0 miles
Clouds Overcast 5000 ft
Windchill 39 °F
Dew Point 32 °F
Humidity 76%
Rainfall 0.00 in
Snow Depth Not available.
UV 0 out of 12
Pollen 8.80 out of 12
Air Quality Not available.
Flu Activity Not available.
METAR KATT 280951Z AUTO 36007KT 10SM OVC050 04/M03 A3026 RMK AO2 SLP252 T00391033

More Conditions Fewer Conditions

Nowcast | as of 2:22 am CST on December 28, 2014

Through 4:30 am...light rain showers will move across the region to the northeast. These showers will produce light rain with little to no accumulation.

×

10-Day Weather Forecast

Almanac

Astronomy

Dec. 28, 2014 Rise Set
Actual Time
Civil Twilight
Nautical Twilight
Astronomical Twilight
Moon
Length of Visible Light
Length of Day
Tomorrow will be .
, % of the Moon is Illuminated

Today's Extremes

State Highs State Lows

Community

WunderPhotos

Upload Photos

1,781,213 photos uploaded!

WunderBlogs® & News

Nearby

Air Quality

  Air Quality AQ Index Pollutant
Not available.

Snow Depth

Station Depth Elevation

Earthquake Activity

City Distance Mag. Time & Date
Minimum magnitude displayed is 2.5.

Coastal Water Temperatures

Place Temperature

Nearby Weather Stations